sensor_id;sensor_type;location;lat;lon;timestamp;P1;durP1;ratioP1;P2;durP2;ratioP2
29002;SDS011;16102;57.138;-2.118;2023-02-01T00:00:31;3.97;;;1.00;;
29002;SDS011;16102;57.138;-2.118;2023-02-01T00:03:00;4.00;;;1.27;;
29002;SDS011;16102;57.138;-2.118;2023-02-01T00:05:27;3.72;;;0.80;;
29002;SDS011;16102;57.138;-2.118;2023-02-01T00:07:54;4.60;;;0.88;;
29002;SDS011;16102;57.138;-2.118;2023-02-01T00:10:21;2.80;;;0.75;;
29002;SDS011;16102;57.138;-2.118;2023-02-01T00:12:49;1.88;;;0.68;;
29002;SDS011;16102;57.138;-2.118;2023-02-01T00:15:16;5.78;;;1.42;;
29002;SDS011;16102;57.138;-2.118;2023-02-01T00:17:43;3.15;;;0.80;;
29002;SDS011;16102;57.138;-2.118;2023-02-01T00:20:11;4.90;;;0.80;;
29002;SDS011;16102;57.138;-2.118;2023-02-01T00:22:38;6.45;;;0.63;;
29002;SDS011;16102;57.138;-2.118;2023-02-01T00:25:05;2.65;;;0.73;;
29002;SDS011;16102;57.138;-2.118;2023-02-01T00:27:32;1.88;;;0.80;;
29002;SDS011;16102;57.138;-2.118;2023-02-01T00:30:00;5.05;;;1.00;;
29002;SDS011;16102;57.138;-2.118;2023-02-01T00:32:27;2.65;;;0.90;;
29002;SDS011;16102;57.138;-2.118;2023-02-01T00:34:54;3.50;;;1.02;;
29002;SDS011;16102;57.138;-2.118;2023-02-01T00:37:21;4.43;;;0.68;;
29002;SDS011;16102;57.138;-2.118;2023-02-01T00:39:49;2.55;;;1.10;;
29002;SDS011;16102;57.138;-2.118;2023-02-01T00:42:16;5.93;;;1.38;;
29002;SDS011;16102;57.138;-2.118;2023-02-01T00:44:43;4.57;;;0.90;;
29002;SDS011;16102;57.138;-2.118;2023-02-01T00:47:10;6.80;;;0.88;;
29002;SDS011;16102;57.138;-2.118;2023-02-01T00:49:37;3.47;;;0.80;;
29002;SDS011;16102;57.138;-2.118;2023-02-01T00:52:05;1.88;;;0.68;;
29002;SDS011;16102;57.138;-2.118;2023-02-01T00:54:32;4.05;;;1.27;;
29002;SDS011;16102;57.138;-2.118;2023-02-01T00:57:03;4.53;;;0.70;;
29002;SDS011;16102;57.138;-2.118;2023-02-01T00:59:30;6.25;;;1.20;;
29002;SDS011;16102;57.138;-2.118;2023-02-01T01:01:57;5.40;;;1.02;;
29002;SDS011;16102;57.138;-2.118;2023-02-01T01:04:25;3.38;;;0.60;;
29002;SDS011;16102;57.138;-2.118;2023-02-01T01:06:52;4.22;;;0.70;;
29002;SDS011;16102;57.138;-2.118;2023-02-01T01:09:19;6.20;;;1.20;;
29002;SDS011;16102;57.138;-2.118;2023-02-01T01:11:46;4.70;;;0.65;;
29002;SDS011;16102;57.138;-2.118;2023-02-01T01:14:13;6.43;;;0.60;;
29002;SDS011;16102;57.138;-2.118;2023-02-01T01:16:41;1.70;;;0.52;;
29002;SDS011;16102;57.138;-2.118;2023-02-01T01:19:08;3.42;;;0.75;;
29002;SDS011;16102;57.138;-2.118;2023-02-01T01:21:35;9.18;;;1.00;;
29002;SDS011;16102;57.138;-2.118;2023-02-01T01:24:03;6.28;;;1.02;;
29002;SDS011;16102;57.138;-2.118;2023-02-01T01:26:30;4.15;;;1.05;;
29002;SDS011;16102;57.138;-2.118;2023-02-01T01:28:57;15.15;;;1.65;;
29002;SDS011;16102;57.138;-2.118;2023-02-01T01:31:25;3.95;;;1.10;;
29002;SDS011;16102;57.138;-2.118;2023-02-01T01:33:53;5.68;;;0.93;;
29002;SDS011;16102;57.138;-2.118;2023-02-01T01:36:22;6.50;;;1.27;;
29002;SDS011;16102;57.138;-2.118;2023-02-01T01:38:49;5.15;;;0.80;;
29002;SDS011;16102;57.138;-2.118;2023-02-01T01:41:18;6.82;;;1.02;;
29002;SDS011;16102;57.138;-2.118;2023-02-01T01:43:56;5.57;;;1.23;;
29002;SDS011;16102;57.138;-2.118;2023-02-01T01:46:31;9.18;;;1.05;;
29002;SDS011;16102;57.138;-2.118;2023-02-01T01:49:09;6.20;;;1.27;;
29002;SDS011;16102;57.138;-2.118;2023-02-01T01:51:41;8.57;;;1.23;;
29002;SDS011;16102;57.138;-2.118;2023-02-01T01:54:21;9.32;;;1.38;;
29002;SDS011;16102;57.138;-2.118;2023-02-01T01:57:09;12.63;;;1.55;;
29002;SDS011;16102;57.138;-2.118;2023-02-01T01:59:46;5.25;;;1.20;;
29002;SDS011;16102;57.138;-2.118;2023-02-01T02:02:16;5.68;;;1.00;;
29002;SDS011;16102;57.138;-2.118;2023-02-01T02:04:43;8.05;;;1.42;;
29002;SDS011;16102;57.138;-2.118;2023-02-01T02:07:16;4.38;;;1.13;;
29002;SDS011;16102;57.138;-2.118;2023-02-01T02:09:46;6.15;;;1.40;;
29002;SDS011;16102;57.138;-2.118;2023-02-01T02:12:26;5.95;;;0.93;;
29002;SDS011;16102;57.138;-2.118;2023-02-01T02:14:53;10.52;;;1.40;;
29002;SDS011;16102;57.138;-2.118;2023-02-01T02:34:17;2.33;;;0.32;;
29002;SDS011;16102;57.138;-2.118;2023-02-01T02:42:52;0.75;;;0.17;;
29002;SDS011;16102;57.138;-2.118;2023-02-01T02:46:12;2.65;;;0.65;;
29002;SDS011;16102;57.138;-2.118;2023-02-01T02:49:19;7.28;;;1.02;;
29002;SDS011;16102;57.138;-2.118;2023-02-01T02:52:14;7.72;;;1.17;;
29002;SDS011;16102;57.138;-2.118;2023-02-01T02:55:03;4.38;;;0.93;;
29002;SDS011;16102;57.138;-2.118;2023-02-01T02:57:38;4.88;;;1.00;;
29002;SDS011;16102;57.138;-2.118;2023-02-01T03:00:31;4.97;;;0.70;;
29002;SDS011;16102;57.138;-2.118;2023-02-01T03:03:21;3.63;;;1.02;;
29002;SDS011;16102;57.138;-2.118;2023-02-01T03:06:13;5.82;;;0.68;;
29002;SDS011;16102;57.138;-2.118;2023-02-01T03:08:46;6.05;;;1.00;;
29002;SDS011;16102;57.138;-2.118;2023-02-01T03:11:14;4.47;;;0.80;;
29002;SDS011;16102;57.138;-2.118;2023-02-01T03:13:51;3.00;;;1.08;;
29002;SDS011;16102;57.138;-2.118;2023-02-01T03:16:36;8.38;;;1.27;;
29002;SDS011;16102;57.138;-2.118;2023-02-01T03:21:54;3.20;;;0.80;;
29002;SDS011;16102;57.138;-2.118;2023-02-01T03:24:30;10.25;;;1.25;;
29002;SDS011;16102;57.138;-2.118;2023-02-01T03:27:14;5.50;;;0.70;;
29002;SDS011;16102;57.138;-2.118;2023-02-01T03:29:59;3.97;;;2.15;;
29002;SDS011;16102;57.138;-2.118;2023-02-01T03:32:26;2.42;;;0.40;;
29002;SDS011;16102;57.138;-2.118;2023-02-01T03:34:54;9.05;;;0.75;;
29002;SDS011;16102;57.138;-2.118;2023-02-01T03:37:26;1.77;;;0.22;;
29002;SDS011;16102;57.138;-2.118;2023-02-01T03:40:01;1.42;;;0.50;;
29002;SDS011;16102;57.138;-2.118;2023-02-01T03:42:38;3.08;;;0.50;;
29002;SDS011;16102;57.138;-2.118;2023-02-01T03:47:40;2.90;;;0.30;;
29002;SDS011;16102;57.138;-2.118;2023-02-01T03:50:12;5.10;;;0.50;;
29002;SDS011;16102;57.138;-2.118;2023-02-01T03:52:50;2.17;;;0.40;;
29002;SDS011;16102;57.138;-2.118;2023-02-01T03:55:28;2.10;;;0.40;;
29002;SDS011;16102;57.138;-2.118;2023-02-01T03:58:02;1.55;;;0.40;;
29002;SDS011;16102;57.138;-2.118;2023-02-01T04:00:35;4.70;;;0.60;;
29002;SDS011;16102;57.138;-2.118;2023-02-01T04:03:03;4.93;;;0.55;;
29002;SDS011;16102;57.138;-2.118;2023-02-01T04:05:31;1.00;;;0.32;;
29002;SDS011;16102;57.138;-2.118;2023-02-01T04:07:59;2.95;;;0.68;;
29002;SDS011;16102;57.138;-2.118;2023-02-01T04:10:27;1.23;;;0.30;;
29002;SDS011;16102;57.138;-2.118;2023-02-01T04:12:54;3.50;;;0.30;;
29002;SDS011;16102;57.138;-2.118;2023-02-01T04:15:21;3.33;;;0.47;;
29002;SDS011;16102;57.138;-2.118;2023-02-01T04:17:48;2.22;;;0.40;;
29002;SDS011;16102;57.138;-2.118;2023-02-01T04:20:15;4.88;;;0.68;;
29002;SDS011;16102;57.138;-2.118;2023-02-01T04:22:43;2.25;;;0.50;;
29002;SDS011;16102;57.138;-2.118;2023-02-01T04:25:10;2.40;;;0.20;;
29002;SDS011;16102;57.138;-2.118;2023-02-01T04:27:38;2.60;;;0.40;;
29002;SDS011;16102;57.138;-2.118;2023-02-01T04:30:04;2.35;;;0.25;;
29002;SDS011;16102;57.138;-2.118;2023-02-01T04:32:36;2.10;;;0.32;;
29002;SDS011;16102;57.138;-2.118;2023-02-01T04:35:04;4.47;;;0.55;;
29002;SDS011;16102;57.138;-2.118;2023-02-01T04:37:32;2.55;;;0.55;;
29002;SDS011;16102;57.138;-2.118;2023-02-01T04:39:59;1.40;;;0.30;;
29002;SDS011;16102;57.138;-2.118;2023-02-01T04:42:26;2.00;;;0.30;;
29002;SDS011;16102;57.138;-2.118;2023-02-01T04:44:53;2.80;;;0.30;;
29002;SDS011;16102;57.138;-2.118;2023-02-01T04:47:20;0.63;;;0.10;;
29002;SDS011;16102;57.138;-2.118;2023-02-01T04:49:47;0.85;;;0.15;;
29002;SDS011;16102;57.138;-2.118;2023-02-01T04:52:14;1.55;;;0.32;;
29002;SDS011;16102;57.138;-2.118;2023-02-01T04:54:41;0.85;;;0.17;;
29002;SDS011;16102;57.138;-2.118;2023-02-01T04:57:09;1.08;;;0.15;;
29002;SDS011;16102;57.138;-2.118;2023-02-01T04:59:36;0.30;;;0.20;;
29002;SDS011;16102;57.138;-2.118;2023-02-01T05:02:03;0.55;;;0.17;;
29002;SDS011;16102;57.138;-2.118;2023-02-01T05:04:30;2.15;;;0.20;;
29002;SDS011;16102;57.138;-2.118;2023-02-01T05:06:57;1.13;;;0.20;;
29002;SDS011;16102;57.138;-2.118;2023-02-01T05:09:24;2.35;;;0.40;;
29002;SDS011;16102;57.138;-2.118;2023-02-01T05:11:51;0.80;;;0.35;;
29002;SDS011;16102;57.138;-2.118;2023-02-01T05:14:37;0.57;;;0.22;;
29002;SDS011;16102;57.138;-2.118;2023-02-01T05:17:04;3.22;;;0.50;;
29002;SDS011;16102;57.138;-2.118;2023-02-01T05:19:31;6.90;;;0.70;;
29002;SDS011;16102;57.138;-2.118;2023-02-01T05:21:58;5.25;;;0.73;;
29002;SDS011;16102;57.138;-2.118;2023-02-01T05:24:26;3.95;;;0.43;;
29002;SDS011;16102;57.138;-2.118;2023-02-01T05:26:53;3.88;;;0.90;;
29002;SDS011;16102;57.138;-2.118;2023-02-01T05:29:20;4.03;;;0.57;;
29002;SDS011;16102;57.138;-2.118;2023-02-01T05:31:47;4.53;;;0.70;;
29002;SDS011;16102;57.138;-2.118;2023-02-01T05:34:15;2.42;;;0.63;;
29002;SDS011;16102;57.138;-2.118;2023-02-01T05:36:42;2.88;;;0.70;;
29002;SDS011;16102;57.138;-2.118;2023-02-01T05:39:10;3.97;;;0.60;;
29002;SDS011;16102;57.138;-2.118;2023-02-01T05:41:37;3.72;;;0.60;;
29002;SDS011;16102;57.138;-2.118;2023-02-01T05:44:04;3.50;;;0.52;;
29002;SDS011;16102;57.138;-2.118;2023-02-01T05:46:34;4.63;;;0.60;;
29002;SDS011;16102;57.138;-2.118;2023-02-01T05:49:02;5.97;;;1.00;;
29002;SDS011;16102;57.138;-2.118;2023-02-01T05:51:30;6.72;;;0.85;;
29002;SDS011;16102;57.138;-2.118;2023-02-01T05:53:57;9.25;;;1.77;;
29002;SDS011;16102;57.138;-2.118;2023-02-01T05:56:24;7.43;;;0.80;;
29002;SDS011;16102;57.138;-2.118;2023-02-01T05:58:51;8.38;;;1.20;;
29002;SDS011;16102;57.138;-2.118;2023-02-01T06:01:18;6.22;;;0.80;;
29002;SDS011;16102;57.138;-2.118;2023-02-01T06:03:45;8.38;;;1.00;;
29002;SDS011;16102;57.138;-2.118;2023-02-01T06:06:13;5.97;;;1.70;;
29002;SDS011;16102;57.138;-2.118;2023-02-01T06:08:40;8.98;;;1.10;;
29002;SDS011;16102;57.138;-2.118;2023-02-01T06:11:07;5.38;;;1.08;;
29002;SDS011;16102;57.138;-2.118;2023-02-01T06:13:36;6.85;;;2.63;;
29002;SDS011;16102;57.138;-2.118;2023-02-01T06:16:05;8.05;;;1.45;;
29002;SDS011;16102;57.138;-2.118;2023-02-01T06:18:34;7.80;;;1.40;;
29002;SDS011;16102;57.138;-2.118;2023-02-01T06:21:02;12.25;;;1.48;;
29002;SDS011;16102;57.138;-2.118;2023-02-01T06:23:29;7.57;;;1.45;;
29002;SDS011;16102;57.138;-2.118;2023-02-01T06:25:58;8.18;;;1.23;;
29002;SDS011;16102;57.138;-2.118;2023-02-01T06:28:27;13.23;;;2.03;;
29002;SDS011;16102;57.138;-2.118;2023-02-01T06:30:55;12.50;;;2.00;;
29002;SDS011;16102;57.138;-2.118;2023-02-01T06:33:24;9.43;;;1.48;;
29002;SDS011;16102;57.138;-2.118;2023-02-01T06:35:58;15.18;;;1.77;;
29002;SDS011;16102;57.138;-2.118;2023-02-01T06:38:26;14.30;;;2.03;;
29002;SDS011;16102;57.138;-2.118;2023-02-01T06:40:53;13.43;;;2.40;;
29002;SDS011;16102;57.138;-2.118;2023-02-01T06:43:22;6.35;;;1.52;;
29002;SDS011;16102;57.138;-2.118;2023-02-01T06:45:51;10.27;;;1.88;;
29002;SDS011;16102;57.138;-2.118;2023-02-01T06:48:19;9.93;;;1.63;;
29002;SDS011;16102;57.138;-2.118;2023-02-01T06:50:46;9.30;;;1.65;;
29002;SDS011;16102;57.138;-2.118;2023-02-01T06:53:13;11.50;;;2.13;;
29002;SDS011;16102;57.138;-2.118;2023-02-01T06:55:40;8.20;;;1.60;;
29002;SDS011;16102;57.138;-2.118;2023-02-01T06:58:07;11.50;;;1.67;;
29002;SDS011;16102;57.138;-2.118;2023-02-01T07:00:34;9.80;;;2.30;;
29002;SDS011;16102;57.138;-2.118;2023-02-01T07:03:01;13.70;;;2.03;;
29002;SDS011;16102;57.138;-2.118;2023-02-01T07:05:28;17.67;;;2.00;;
29002;SDS011;16102;57.138;-2.118;2023-02-01T07:07:55;6.65;;;1.48;;
29002;SDS011;16102;57.138;-2.118;2023-02-01T07:10:22;6.47;;;1.67;;
29002;SDS011;16102;57.138;-2.118;2023-02-01T07:12:50;7.78;;;1.83;;
29002;SDS011;16102;57.138;-2.118;2023-02-01T07:15:17;12.77;;;1.65;;
29002;SDS011;16102;57.138;-2.118;2023-02-01T07:17:44;16.95;;;1.92;;
29002;SDS011;16102;57.138;-2.118;2023-02-01T07:20:13;6.18;;;1.30;;
29002;SDS011;16102;57.138;-2.118;2023-02-01T07:22:40;7.18;;;1.55;;
29002;SDS011;16102;57.138;-2.118;2023-02-01T07:25:07;15.38;;;2.75;;
29002;SDS011;16102;57.138;-2.118;2023-02-01T07:27:34;8.63;;;1.80;;
29002;SDS011;16102;57.138;-2.118;2023-02-01T07:30:02;9.95;;;1.83;;
29002;SDS011;16102;57.138;-2.118;2023-02-01T07:32:31;10.75;;;2.05;;
29002;SDS011;16102;57.138;-2.118;2023-02-01T07:34:58;11.68;;;1.98;;
29002;SDS011;16102;57.138;-2.118;2023-02-01T07:37:26;8.60;;;1.80;;
29002;SDS011;16102;57.138;-2.118;2023-02-01T07:39:52;19.23;;;2.92;;
29002;SDS011;16102;57.138;-2.118;2023-02-01T07:42:19;9.48;;;2.00;;
29002;SDS011;16102;57.138;-2.118;2023-02-01T07:44:47;10.50;;;2.00;;
29002;SDS011;16102;57.138;-2.118;2023-02-01T07:47:14;9.35;;;2.00;;
29002;SDS011;16102;57.138;-2.118;2023-02-01T07:49:42;13.02;;;2.50;;
29002;SDS011;16102;57.138;-2.118;2023-02-01T07:52:09;14.82;;;2.35;;
29002;SDS011;16102;57.138;-2.118;2023-02-01T07:54:37;8.60;;;1.60;;
29002;SDS011;16102;57.138;-2.118;2023-02-01T07:57:05;8.27;;;1.90;;
29002;SDS011;16102;57.138;-2.118;2023-02-01T07:59:32;7.55;;;1.73;;
29002;SDS011;16102;57.138;-2.118;2023-02-01T08:01:59;9.02;;;1.65;;
29002;SDS011;16102;57.138;-2.118;2023-02-01T08:04:26;9.98;;;1.50;;
29002;SDS011;16102;57.138;-2.118;2023-02-01T08:06:55;7.72;;;2.28;;
29002;SDS011;16102;57.138;-2.118;2023-02-01T08:09:22;7.90;;;1.63;;
29002;SDS011;16102;57.138;-2.118;2023-02-01T08:11:49;9.85;;;2.10;;
29002;SDS011;16102;57.138;-2.118;2023-02-01T08:14:17;9.48;;;1.85;;
29002;SDS011;16102;57.138;-2.118;2023-02-01T08:16:44;14.55;;;1.90;;
29002;SDS011;16102;57.138;-2.118;2023-02-01T08:19:11;8.88;;;1.05;;
29002;SDS011;16102;57.138;-2.118;2023-02-01T08:21:38;7.20;;;1.60;;
29002;SDS011;16102;57.138;-2.118;2023-02-01T08:24:06;9.70;;;1.45;;
29002;SDS011;16102;57.138;-2.118;2023-02-01T08:26:34;9.77;;;1.83;;
29002;SDS011;16102;57.138;-2.118;2023-02-01T08:29:02;8.02;;;1.67;;
29002;SDS011;16102;57.138;-2.118;2023-02-01T08:31:31;10.02;;;2.40;;
29002;SDS011;16102;57.138;-2.118;2023-02-01T08:34:00;11.75;;;1.95;;
29002;SDS011;16102;57.138;-2.118;2023-02-01T08:36:29;8.57;;;1.85;;
29002;SDS011;16102;57.138;-2.118;2023-02-01T08:38:56;14.15;;;4.10;;
29002;SDS011;16102;57.138;-2.118;2023-02-01T08:41:24;8.70;;;1.73;;
29002;SDS011;16102;57.138;-2.118;2023-02-01T08:43:53;10.50;;;2.10;;
29002;SDS011;16102;57.138;-2.118;2023-02-01T08:46:20;16.58;;;2.33;;
29002;SDS011;16102;57.138;-2.118;2023-02-01T08:48:48;7.03;;;1.70;;
29002;SDS011;16102;57.138;-2.118;2023-02-01T08:51:16;12.70;;;2.60;;
29002;SDS011;16102;57.138;-2.118;2023-02-01T08:53:45;12.18;;;2.20;;
29002;SDS011;16102;57.138;-2.118;2023-02-01T08:56:12;11.27;;;1.63;;
29002;SDS011;16102;57.138;-2.118;2023-02-01T08:58:41;6.95;;;2.17;;
29002;SDS011;16102;57.138;-2.118;2023-02-01T09:01:09;8.20;;;2.00;;
29002;SDS011;16102;57.138;-2.118;2023-02-01T09:03:39;12.40;;;1.80;;
29002;SDS011;16102;57.138;-2.118;2023-02-01T09:06:08;9.07;;;1.40;;
29002;SDS011;16102;57.138;-2.118;2023-02-01T09:08:37;11.20;;;1.85;;
29002;SDS011;16102;57.138;-2.118;2023-02-01T09:11:05;10.35;;;2.70;;
29002;SDS011;16102;57.138;-2.118;2023-02-01T09:13:34;14.77;;;1.52;;
29002;SDS011;16102;57.138;-2.118;2023-02-01T09:16:02;7.93;;;1.90;;
29002;SDS011;16102;57.138;-2.118;2023-02-01T09:18:29;9.20;;;1.83;;
29002;SDS011;16102;57.138;-2.118;2023-02-01T09:20:57;6.75;;;1.60;;
29002;SDS011;16102;57.138;-2.118;2023-02-01T09:23:24;7.75;;;1.63;;
29002;SDS011;16102;57.138;-2.118;2023-02-01T09:25:51;7.13;;;2.05;;
29002;SDS011;16102;57.138;-2.118;2023-02-01T09:28:18;9.25;;;1.80;;
29002;SDS011;16102;57.138;-2.118;2023-02-01T09:30:46;10.48;;;1.80;;
29002;SDS011;16102;57.138;-2.118;2023-02-01T09:33:13;16.92;;;2.88;;
29002;SDS011;16102;57.138;-2.118;2023-02-01T09:35:40;8.70;;;2.10;;
29002;SDS011;16102;57.138;-2.118;2023-02-01T09:38:07;12.48;;;2.70;;
29002;SDS011;16102;57.138;-2.118;2023-02-01T09:40:34;9.65;;;1.33;;
29002;SDS011;16102;57.138;-2.118;2023-02-01T09:43:10;11.05;;;2.10;;
29002;SDS011;16102;57.138;-2.118;2023-02-01T09:48:40;12.13;;;1.70;;
29002;SDS011;16102;57.138;-2.118;2023-02-01T09:51:19;8.20;;;1.85;;
29002;SDS011;16102;57.138;-2.118;2023-02-01T09:54:22;7.85;;;1.55;;
29002;SDS011;16102;57.138;-2.118;2023-02-01T09:56:53;5.85;;;1.55;;
29002;SDS011;16102;57.138;-2.118;2023-02-01T10:02:04;6.57;;;1.45;;
29002;SDS011;16102;57.138;-2.118;2023-02-01T10:04:38;2.42;;;0.90;;
29002;SDS011;16102;57.138;-2.118;2023-02-01T10:07:51;8.98;;;1.67;;
29002;SDS011;16102;57.138;-2.118;2023-02-01T10:09:55;11.98;;;2.17;;
29002;SDS011;16102;57.138;-2.118;2023-02-01T10:15:50;9.20;;;1.83;;
29002;SDS011;16102;57.138;-2.118;2023-02-01T10:26:51;12.50;;;1.98;;
29002;SDS011;16102;57.138;-2.118;2023-02-01T10:29:26;10.23;;;1.63;;
29002;SDS011;16102;57.138;-2.118;2023-02-01T10:32:01;9.30;;;1.50;;
29002;SDS011;16102;57.138;-2.118;2023-02-01T10:34:32;9.88;;;2.15;;
29002;SDS011;16102;57.138;-2.118;2023-02-01T10:37:07;8.63;;;1.63;;
29002;SDS011;16102;57.138;-2.118;2023-02-01T10:40:20;11.75;;;2.25;;
29002;SDS011;16102;57.138;-2.118;2023-02-01T10:42:51;10.20;;;1.55;;
29002;SDS011;16102;57.138;-2.118;2023-02-01T10:45:24;7.82;;;2.40;;
29002;SDS011;16102;57.138;-2.118;2023-02-01T10:47:54;10.05;;;2.13;;
29002;SDS011;16102;57.138;-2.118;2023-02-01T10:50:29;7.78;;;2.65;;
29002;SDS011;16102;57.138;-2.118;2023-02-01T10:53:03;11.15;;;1.25;;
29002;SDS011;16102;57.138;-2.118;2023-02-01T10:55:53;7.05;;;1.90;;
29002;SDS011;16102;57.138;-2.118;2023-02-01T11:03:32;6.40;;;1.58;;
29002;SDS011;16102;57.138;-2.118;2023-02-01T11:06:19;7.47;;;1.20;;
29002;SDS011;16102;57.138;-2.118;2023-02-01T11:08:57;4.97;;;1.10;;
29002;SDS011;16102;57.138;-2.118;2023-02-01T11:11:27;6.35;;;1.45;;
29002;SDS011;16102;57.138;-2.118;2023-02-01T11:13:59;4.70;;;1.30;;
29002;SDS011;16102;57.138;-2.118;2023-02-01T11:16:35;8.18;;;1.38;;
29002;SDS011;16102;57.138;-2.118;2023-02-01T11:19:04;7.13;;;1.73;;
29002;SDS011;16102;57.138;-2.118;2023-02-01T11:21:32;7.85;;;1.60;;
29002;SDS011;16102;57.138;-2.118;2023-02-01T11:24:01;8.07;;;2.13;;
29002;SDS011;16102;57.138;-2.118;2023-02-01T11:26:30;7.85;;;1.55;;
29002;SDS011;16102;57.138;-2.118;2023-02-01T11:31:31;5.57;;;1.73;;
29002;SDS011;16102;57.138;-2.118;2023-02-01T11:34:07;10.25;;;1.60;;
29002;SDS011;16102;57.138;-2.118;2023-02-01T11:36:40;5.50;;;1.40;;
29002;SDS011;16102;57.138;-2.118;2023-02-01T11:39:29;4.72;;;1.10;;
29002;SDS011;16102;57.138;-2.118;2023-02-01T11:41:58;6.35;;;1.05;;
29002;SDS011;16102;57.138;-2.118;2023-02-01T11:44:34;2.70;;;1.45;;
29002;SDS011;16102;57.138;-2.118;2023-02-01T11:47:27;7.45;;;0.90;;
29002;SDS011;16102;57.138;-2.118;2023-02-01T12:06:42;10.27;;;2.10;;
29002;SDS011;16102;57.138;-2.118;2023-02-01T12:18:06;6.97;;;1.52;;
29002;SDS011;16102;57.138;-2.118;2023-02-01T12:24:02;8.00;;;1.60;;
29002;SDS011;16102;57.138;-2.118;2023-02-01T12:29:22;9.68;;;2.83;;
29002;SDS011;16102;57.138;-2.118;2023-02-01T12:43:09;7.60;;;2.25;;
29002;SDS011;16102;57.138;-2.118;2023-02-01T12:45:58;6.57;;;1.40;;
29002;SDS011;16102;57.138;-2.118;2023-02-01T12:51:08;8.13;;;1.80;;
29002;SDS011;16102;57.138;-2.118;2023-02-01T12:53:55;5.78;;;1.45;;
29002;SDS011;16102;57.138;-2.118;2023-02-01T12:56:42;5.50;;;1.58;;
29002;SDS011;16102;57.138;-2.118;2023-02-01T12:59:25;14.45;;;1.63;;
29002;SDS011;16102;57.138;-2.118;2023-02-01T13:02:20;5.50;;;1.27;;
29002;SDS011;16102;57.138;-2.118;2023-02-01T13:10:44;4.30;;;1.27;;
29002;SDS011;16102;57.138;-2.118;2023-02-01T13:13:22;6.05;;;1.52;;
29002;SDS011;16102;57.138;-2.118;2023-02-01T13:16:06;8.82;;;1.50;;
29002;SDS011;16102;57.138;-2.118;2023-02-01T13:18:37;4.90;;;1.60;;
29002;SDS011;16102;57.138;-2.118;2023-02-01T13:21:14;7.10;;;1.73;;
29002;SDS011;16102;57.138;-2.118;2023-02-01T13:23:45;5.55;;;1.30;;
29002;SDS011;16102;57.138;-2.118;2023-02-01T13:26:14;9.38;;;1.63;;
29002;SDS011;16102;57.138;-2.118;2023-02-01T13:45:31;8.43;;;1.30;;
29002;SDS011;16102;57.138;-2.118;2023-02-01T13:48:03;4.22;;;1.38;;
29002;SDS011;16102;57.138;-2.118;2023-02-01T13:50:33;8.48;;;1.80;;
29002;SDS011;16102;57.138;-2.118;2023-02-01T13:55:59;5.53;;;1.23;;
29002;SDS011;16102;57.138;-2.118;2023-02-01T13:58:40;7.18;;;1.92;;
29002;SDS011;16102;57.138;-2.118;2023-02-01T14:11:47;5.22;;;1.10;;
29002;SDS011;16102;57.138;-2.118;2023-02-01T14:16:44;3.95;;;1.80;;
29002;SDS011;16102;57.138;-2.118;2023-02-01T14:19:24;4.55;;;1.33;;
29002;SDS011;16102;57.138;-2.118;2023-02-01T14:22:27;5.25;;;1.55;;
29002;SDS011;16102;57.138;-2.118;2023-02-01T14:24:51;4.75;;;1.08;;
29002;SDS011;16102;57.138;-2.118;2023-02-01T14:27:26;5.00;;;1.30;;
29002;SDS011;16102;57.138;-2.118;2023-02-01T14:29:57;4.18;;;1.33;;
29002;SDS011;16102;57.138;-2.118;2023-02-01T14:32:30;11.65;;;1.52;;
29002;SDS011;16102;57.138;-2.118;2023-02-01T14:35:01;3.88;;;1.42;;
29002;SDS011;16102;57.138;-2.118;2023-02-01T14:37:33;7.32;;;1.30;;
29002;SDS011;16102;57.138;-2.118;2023-02-01T14:48:40;6.45;;;1.40;;
29002;SDS011;16102;57.138;-2.118;2023-02-01T15:03:49;5.47;;;1.42;;
29002;SDS011;16102;57.138;-2.118;2023-02-01T15:11:56;4.32;;;1.40;;
29002;SDS011;16102;57.138;-2.118;2023-02-01T15:14:35;6.72;;;1.10;;
29002;SDS011;16102;57.138;-2.118;2023-02-01T15:17:16;8.57;;;1.48;;
29002;SDS011;16102;57.138;-2.118;2023-02-01T15:20:01;11.52;;;1.83;;
29002;SDS011;16102;57.138;-2.118;2023-02-01T15:22:55;5.25;;;1.40;;
29002;SDS011;16102;57.138;-2.118;2023-02-01T15:25:24;11.15;;;2.50;;
29002;SDS011;16102;57.138;-2.118;2023-02-01T15:27:53;9.93;;;1.80;;
29002;SDS011;16102;57.138;-2.118;2023-02-01T15:30:27;7.97;;;1.75;;
29002;SDS011;16102;57.138;-2.118;2023-02-01T15:35:38;6.68;;;1.80;;
29002;SDS011;16102;57.138;-2.118;2023-02-01T15:46:31;6.28;;;1.80;;
29002;SDS011;16102;57.138;-2.118;2023-02-01T15:49:03;8.57;;;2.10;;
29002;SDS011;16102;57.138;-2.118;2023-02-01T15:51:31;9.75;;;2.00;;
29002;SDS011;16102;57.138;-2.118;2023-02-01T15:54:02;10.98;;;2.47;;
29002;SDS011;16102;57.138;-2.118;2023-02-01T15:56:34;15.25;;;2.28;;
29002;SDS011;16102;57.138;-2.118;2023-02-01T15:59:06;14.32;;;2.25;;
29002;SDS011;16102;57.138;-2.118;2023-02-01T16:01:41;8.77;;;1.70;;
29002;SDS011;16102;57.138;-2.118;2023-02-01T16:04:15;11.00;;;2.42;;
29002;SDS011;16102;57.138;-2.118;2023-02-01T16:06:50;10.02;;;1.48;;
29002;SDS011;16102;57.138;-2.118;2023-02-01T16:09:23;6.95;;;2.08;;
29002;SDS011;16102;57.138;-2.118;2023-02-01T16:14:27;11.82;;;2.75;;
29002;SDS011;16102;57.138;-2.118;2023-02-01T16:16:55;14.05;;;2.17;;
29002;SDS011;16102;57.138;-2.118;2023-02-01T16:19:24;6.65;;;1.70;;
29002;SDS011;16102;57.138;-2.118;2023-02-01T16:21:56;8.88;;;1.90;;
29002;SDS011;16102;57.138;-2.118;2023-02-01T16:24:27;10.30;;;3.53;;
29002;SDS011;16102;57.138;-2.118;2023-02-01T16:26:57;14.48;;;3.30;;
29002;SDS011;16102;57.138;-2.118;2023-02-01T16:29:24;13.85;;;3.05;;
29002;SDS011;16102;57.138;-2.118;2023-02-01T16:31:51;13.15;;;3.10;;
29002;SDS011;16102;57.138;-2.118;2023-02-01T16:34:19;16.25;;;4.53;;
29002;SDS011;16102;57.138;-2.118;2023-02-01T16:36:49;15.63;;;2.30;;
29002;SDS011;16102;57.138;-2.118;2023-02-01T16:39:20;13.60;;;2.13;;
29002;SDS011;16102;57.138;-2.118;2023-02-01T16:41:48;8.80;;;2.20;;
29002;SDS011;16102;57.138;-2.118;2023-02-01T16:44:15;12.98;;;1.75;;
29002;SDS011;16102;57.138;-2.118;2023-02-01T16:46:43;14.75;;;2.35;;
29002;SDS011;16102;57.138;-2.118;2023-02-01T16:49:24;11.90;;;2.40;;
29002;SDS011;16102;57.138;-2.118;2023-02-01T16:51:54;14.77;;;1.77;;
29002;SDS011;16102;57.138;-2.118;2023-02-01T16:54:24;5.80;;;1.83;;
29002;SDS011;16102;57.138;-2.118;2023-02-01T16:56:51;7.60;;;1.95;;
29002;SDS011;16102;57.138;-2.118;2023-02-01T16:59:19;11.00;;;2.38;;
29002;SDS011;16102;57.138;-2.118;2023-02-01T17:01:46;10.50;;;4.32;;
29002;SDS011;16102;57.138;-2.118;2023-02-01T17:04:12;14.77;;;2.90;;
29002;SDS011;16102;57.138;-2.118;2023-02-01T17:06:39;16.70;;;5.97;;
29002;SDS011;16102;57.138;-2.118;2023-02-01T17:09:08;10.93;;;1.95;;
29002;SDS011;16102;57.138;-2.118;2023-02-01T17:11:35;8.60;;;2.55;;
29002;SDS011;16102;57.138;-2.118;2023-02-01T17:16:41;11.13;;;3.03;;
29002;SDS011;16102;57.138;-2.118;2023-02-01T17:19:13;8.13;;;2.33;;
29002;SDS011;16102;57.138;-2.118;2023-02-01T17:21:47;10.93;;;2.35;;
29002;SDS011;16102;57.138;-2.118;2023-02-01T17:24:18;9.70;;;3.03;;
29002;SDS011;16102;57.138;-2.118;2023-02-01T17:26:47;10.63;;;2.55;;
29002;SDS011;16102;57.138;-2.118;2023-02-01T17:29:17;6.88;;;2.13;;
29002;SDS011;16102;57.138;-2.118;2023-02-01T17:31:45;8.50;;;1.65;;
29002;SDS011;16102;57.138;-2.118;2023-02-01T17:34:14;9.98;;;2.40;;
29002;SDS011;16102;57.138;-2.118;2023-02-01T17:36:42;8.57;;;1.90;;
29002;SDS011;16102;57.138;-2.118;2023-02-01T17:39:11;10.95;;;3.22;;
29002;SDS011;16102;57.138;-2.118;2023-02-01T17:42:02;9.65;;;2.75;;
29002;SDS011;16102;57.138;-2.118;2023-02-01T17:44:30;4.72;;;1.85;;
29002;SDS011;16102;57.138;-2.118;2023-02-01T17:46:57;3.20;;;1.17;;
29002;SDS011;16102;57.138;-2.118;2023-02-01T17:49:25;11.68;;;3.47;;
29002;SDS011;16102;57.138;-2.118;2023-02-01T17:51:54;6.63;;;2.70;;
29002;SDS011;16102;57.138;-2.118;2023-02-01T17:54:25;10.90;;;2.83;;